Time;durP1;ratioP1;P1;durP2;ratioP2;P2;SDS_P1;SDS_P2;PMS_P1;PMS_P2;Temp;Humidity;BMP_temperature;BMP_pressure;BME280_temperature;BME280_humidity;BME280_pressure;Samples;Min_cycle;Max_cycle;Signal;HPM_P1;HPM_P2
2023/01/09 00:01:32;;;;;;;2.73;2.53;;;6.70;92.20;;;5.95;82.81;99025.63;5012214;28;20684;-71
2023/01/09 00:04:03;;;;;;;4.83;2.63;;;6.70;92.30;;;5.96;82.88;99018.47;5012523;28;20191;-71
2023/01/09 00:06:31;;;;;;;3.13;2.50;;;6.70;92.20;;;5.96;82.58;99010.50;5011893;28;20211;-71
2023/01/09 00:08:59;;;;;;;5.70;2.50;;;6.70;92.30;;;5.97;82.39;99004.19;5011634;28;20227;-71
2023/01/09 00:11:27;;;;;;;2.87;2.33;;;6.70;92.20;;;5.97;82.43;98996.22;5011975;28;20550;-72
2023/01/09 00:13:56;;;;;;;2.27;2.07;;;6.70;92.20;;;5.97;82.54;99002.38;5012262;28;20211;-71
2023/01/09 00:16:24;;;;;;;2.87;2.30;;;6.80;92.10;;;5.99;82.55;98994.25;5011887;28;20233;-71
2023/01/09 00:18:53;;;;;;;2.77;2.40;;;6.80;92.20;;;5.98;82.94;98981.94;5011836;28;20226;-71
2023/01/09 00:21:22;;;;;;;3.47;2.57;;;6.80;92.20;;;5.98;82.63;98977.47;5011813;28;20295;-71
2023/01/09 00:23:54;;;;;;;2.17;2.00;;;6.80;92.20;;;6.01;82.65;98968.31;5012083;28;20215;-71
2023/01/09 00:26:22;;;;;;;3.20;2.20;;;6.80;92.20;;;6.01;82.57;98957.69;5005689;28;20235;-72
2023/01/09 00:28:53;;;;;;;2.30;2.10;;;6.80;92.10;;;6.00;82.42;98956.03;4992082;28;20231;-72
2023/01/09 00:31:23;;;;;;;3.20;2.40;;;6.80;92.10;;;6.01;82.51;98958.53;4992247;28;20212;-71
2023/01/09 00:33:59;;;;;;;3.03;2.40;;;6.80;92.10;;;6.03;82.25;98963.66;4992510;28;20211;-71
2023/01/09 00:36:29;;;;;;;3.37;1.90;;;6.80;92.00;;;6.02;82.56;98962.00;4991693;28;20672;-70
2023/01/09 00:38:57;;;;;;;3.17;2.10;;;6.80;92.10;;;6.02;82.54;98962.00;4992215;28;20212;-71
2023/01/09 00:41:31;;;;;;;3.03;2.00;;;6.80;92.10;;;6.01;82.68;98960.34;4991884;28;20208;-71
2023/01/09 00:44:10;;;;;;;5.87;2.57;;;6.80;92.20;;;6.02;82.65;98948.72;4992000;28;20208;-71
2023/01/09 00:46:44;;;;;;;2.70;2.17;;;6.80;92.30;;;6.07;82.82;98949.03;4991285;28;20286;-71
2023/01/09 00:49:14;;;;;;;2.30;2.00;;;6.90;92.30;;;6.08;82.77;98946.19;4991969;28;20232;-71
2023/01/09 00:51:43;;;;;;;2.23;2.03;;;6.90;92.20;;;6.09;82.75;98947.84;4991700;28;20212;-72
2023/01/09 00:54:16;;;;;;;2.40;2.20;;;6.90;92.20;;;6.09;82.63;98937.22;4991760;28;20244;-70
2023/01/09 00:56:44;;;;;;;3.20;2.20;;;6.90;92.20;;;6.14;82.92;98947.31;4991378;28;20203;-72
2023/01/09 00:59:12;;;;;;;3.20;2.23;;;7.00;92.10;;;6.13;82.36;98944.84;4991632;28;20216;-72
2023/01/09 01:01:41;;;;;;;2.43;2.00;;;7.00;92.00;;;6.14;82.55;98944.66;4991935;28;20212;-72
2023/01/09 01:09:41;;;;;;;3.00;2.10;;;6.90;92.00;;;6.10;82.64;98938.03;4991580;28;20243;-70
2023/01/09 01:12:09;;;;;;;2.60;2.40;;;6.90;92.20;;;6.10;82.52;98935.38;4991619;28;20270;-71
2023/01/09 01:14:39;;;;;;;3.00;2.30;;;6.90;92.10;;;6.07;82.76;98938.38;4991495;28;20204;-71
2023/01/09 01:17:08;;;;;;;2.80;2.60;;;6.80;92.20;;;6.06;82.73;98939.41;4991042;28;20231;-72
2023/01/09 01:19:37;;;;;;;4.10;2.70;;;6.90;92.30;;;6.06;83.12;98942.06;4991646;28;20204;-71
2023/01/09 01:22:06;;;;;;;4.70;2.80;;;6.90;92.40;;;6.04;82.92;98944.06;4991206;28;20812;-71
2023/01/09 01:24:34;;;;;;;3.97;2.97;;;6.80;92.70;;;6.05;83.08;98935.09;4991401;28;20223;-71
2023/01/09 01:27:02;;;;;;;4.47;2.47;;;6.80;92.40;;;6.01;83.27;98934.63;4990811;28;20716;-71
2023/01/09 01:29:30;;;;;;;4.60;2.73;;;6.80;92.40;;;6.03;82.90;98937.09;4991394;28;20224;-71
2023/01/09 01:31:58;;;;;;;2.63;2.30;;;6.80;92.40;;;6.03;82.88;98932.59;4991040;28;20208;-71
2023/01/09 01:34:28;;;;;;;2.33;2.10;;;6.80;92.40;;;6.02;83.29;98935.44;4991589;28;20208;-71
2023/01/09 01:36:56;;;;;;;3.00;2.23;;;6.80;92.40;;;6.04;83.53;98930.78;4990838;28;20558;-71
2023/01/09 01:39:25;;;;;;;2.37;1.90;;;6.80;92.40;;;6.04;83.30;98928.13;4991028;28;20208;-71
2023/01/09 01:41:54;;;;;;;2.97;2.00;;;6.80;92.50;;;6.05;83.34;98925.31;4990902;28;20228;-71
2023/01/09 01:45:02;;;;;;;2.13;1.83;;;6.90;92.50;;;6.09;83.62;98936.41;4990662;28;20680;-71
2023/01/09 01:47:40;;;;;;;3.60;2.13;;;6.90;92.60;;;6.09;83.79;98923.13;4990611;28;20235;-70
2023/01/09 01:50:19;;;;;;;1.83;1.73;;;6.90;92.70;;;6.11;84.02;98929.06;4990644;28;20234;-71
2023/01/09 01:52:54;;;;;;;3.33;1.90;;;6.90;92.90;;;6.13;83.99;98932.38;4990445;28;20215;-71
2023/01/09 01:55:24;;;;;;;2.10;1.90;;;6.90;92.80;;;6.14;84.53;98923.41;5008313;28;20222;-70
2023/01/09 01:58:00;;;;;;;3.10;2.00;;;7.00;93.00;;;6.19;84.33;98929.03;5010015;28;20224;-72
2023/01/09 02:00:33;;;;;;;2.17;1.83;;;7.00;93.10;;;6.22;84.70;98925.19;5010072;28;20662;-71
2023/01/09 02:03:02;;;;;;;2.10;1.87;;;7.00;93.10;;;6.25;84.69;98915.03;5009955;28;20612;-70
2023/01/09 02:05:31;;;;;;;2.53;1.80;;;7.10;93.20;;;6.26;84.87;98910.53;5010155;28;20216;-70
2023/01/09 02:07:59;;;;;;;2.20;1.80;;;7.10;93.20;;;6.26;84.98;98907.88;5009392;28;20594;-71
2023/01/09 02:10:28;;;;;;;1.97;1.70;;;7.10;93.40;;;6.29;85.04;98913.69;5009915;28;20240;-71
2023/01/09 02:12:57;;;;;;;5.70;2.23;;;7.10;93.30;;;6.30;85.29;98907.34;5009552;28;20257;-70
2023/01/09 02:15:27;;;;;;;4.10;2.17;;;7.10;93.40;;;6.32;85.42;98904.50;5009794;28;20251;-72
2023/01/09 02:18:31;;;;;;;2.87;2.00;;;7.20;93.60;;;6.31;85.26;98910.81;5009471;28;20636;-71
2023/01/09 02:21:04;;;;;;;3.00;2.00;;;7.10;93.60;;;6.31;85.82;98902.84;4991244;28;20211;-71
2023/01/09 02:24:28;;;;;;;2.60;2.03;;;7.10;93.70;;;6.32;85.99;98893.88;5009652;28;20211;-70
2023/01/09 02:27:52;;;;;;;2.53;1.80;;;7.10;93.80;;;6.29;86.12;98900.38;5009398;28;20742;-72
2023/01/09 02:30:39;;;;;;;2.33;2.13;;;7.10;93.90;;;6.31;86.61;98892.22;5009687;28;20227;-71
2023/01/09 02:33:48;;;;;;;2.77;2.57;;;7.20;94.20;;;6.28;86.72;98896.06;5009764;28;20214;-71
2023/01/09 02:36:28;;;;;;;2.63;1.70;;;7.10;94.20;;;6.29;86.66;98895.06;4969699;28;20219;-72
2023/01/09 02:39:23;;;;;;;2.83;1.97;;;7.10;94.30;;;6.28;86.63;98888.09;4990250;28;20262;-71
2023/01/09 02:42:01;;;;;;;2.33;1.90;;;7.10;94.30;;;6.32;86.94;98883.25;4989899;28;20228;-71
2023/01/09 02:44:32;;;;;;;2.27;2.00;;;7.10;94.30;;;6.33;86.82;98880.44;4989818;28;20208;-71
2023/01/09 02:47:05;;;;;;;3.50;1.90;;;7.10;94.30;;;6.32;86.84;98876.09;4989830;28;20228;-70
2023/01/09 02:49:38;;;;;;;3.60;2.10;;;7.10;94.30;;;6.29;86.87;98879.13;4990313;28;20201;-71
2023/01/09 02:52:37;;;;;;;1.93;1.83;;;7.10;94.40;;;6.27;86.64;98875.81;4990075;28;20212;-71
2023/01/09 02:55:18;;;;;;;3.10;2.10;;;7.10;94.50;;;6.26;87.20;98871.53;5005397;28;20261;-72
2023/01/09 02:58:03;;;;;;;3.27;1.90;;;7.10;94.60;;;6.26;87.38;98870.69;5009528;28;20251;-71
2023/01/09 03:00:45;;;;;;;3.20;2.00;;;7.10;94.60;;;6.27;87.38;98870.50;5009480;28;20691;-71
2023/01/09 03:03:27;;;;;;;3.40;2.23;;;7.10;94.60;;;6.25;87.63;98872.50;5009436;28;20294;-70
2023/01/09 03:06:06;;;;;;;4.57;2.20;;;7.00;94.80;;;6.23;87.31;98863.91;5009317;28;20218;-71
2023/01/09 03:08:41;;;;;;;2.00;1.90;;;7.10;94.90;;;6.23;87.76;98866.56;5009297;28;20235;-72
2023/01/09 03:11:11;;;;;;;3.07;2.13;;;7.00;94.90;;;6.23;87.71;98871.88;5009187;28;20234;-70
2023/01/09 03:13:46;;;;;;;1.80;1.70;;;7.00;95.00;;;6.22;87.83;98859.59;5009173;28;20215;-71
2023/01/09 03:16:21;;;;;;;2.90;2.20;;;7.00;95.10;;;6.23;87.74;98861.25;5009229;28;20192;-71
2023/01/09 03:18:55;;;;;;;3.10;2.23;;;7.00;95.10;;;6.22;87.91;98856.94;5008824;28;20231;-71
2023/01/09 03:21:25;;;;;;;4.73;2.50;;;7.00;95.10;;;6.26;88.24;98852.91;5009267;28;20199;-70
2023/01/09 03:23:57;;;;;;;4.20;2.40;;;7.10;95.20;;;6.25;88.11;98850.41;5009485;28;20211;-70
2023/01/09 03:26:27;;;;;;;4.67;2.63;;;7.10;95.20;;;6.24;88.10;98854.91;5012442;28;20214;-71
2023/01/09 03:28:56;;;;;;;2.40;2.20;;;7.00;95.30;;;6.24;88.36;98849.59;4997785;28;20224;-71
2023/01/09 03:31:25;;;;;;;2.30;2.10;;;7.10;95.30;;;6.26;88.24;98852.91;4993310;28;20239;-72
2023/01/09 03:33:54;;;;;;;2.50;2.30;;;7.10;95.20;;;6.29;88.37;98857.88;5001979;28;20200;-71
2023/01/09 03:36:24;;;;;;;4.20;2.30;;;7.10;95.20;;;6.25;88.48;98848.59;5012435;28;20215;-72
2023/01/09 03:38:52;;;;;;;3.67;2.40;;;7.10;95.30;;;6.25;88.02;98843.28;5012803;28;20231;-71
2023/01/09 03:41:20;;;;;;;2.77;2.50;;;7.00;95.40;;;6.26;88.47;98834.31;5012455;28;20906;-72
2023/01/09 03:43:48;;;;;;;4.17;2.73;;;7.10;95.40;;;6.30;88.37;98838.25;5012481;28;20226;-72
2023/01/09 03:46:17;;;;;;;4.10;2.70;;;7.10;95.30;;;6.28;88.46;98840.25;5011437;28;20211;-71
2023/01/09 03:48:45;;;;;;;3.30;2.70;;;7.10;95.40;;;6.25;88.76;98832.66;5012261;28;20231;-72
2023/01/09 03:51:15;;;;;;;3.47;2.63;;;7.10;95.50;;;6.24;88.83;98838.97;5012802;28;20258;-72
2023/01/09 03:53:43;;;;;;;4.40;2.90;;;7.10;95.50;;;6.23;88.79;98832.00;5009014;28;20212;-71
2023/01/09 03:56:11;;;;;;;2.60;2.33;;;7.00;95.60;;;6.24;88.81;98833.66;4993524;28;20212;-72
2023/01/09 03:58:39;;;;;;;3.63;2.77;;;7.10;95.50;;;6.30;88.76;98826.81;4992817;28;20232;-71
2023/01/09 04:01:11;;;;;;;4.97;3.00;;;7.10;95.50;;;6.30;89.12;98832.94;4992982;28;20205;-71
2023/01/09 04:03:40;;;;;;;3.77;3.37;;;7.10;95.70;;;6.27;89.30;98822.66;4993172;28;20653;-72
2023/01/09 04:06:08;;;;;;;3.77;3.13;;;7.10;95.80;;;6.26;89.05;98825.50;4992672;28;20212;-72
2023/01/09 04:08:37;;;;;;;4.07;2.90;;;7.10;95.90;;;6.25;89.34;98827.34;4992277;28;20236;-72
2023/01/09 04:11:06;;;;;;;5.77;3.00;;;7.10;95.80;;;6.24;89.54;98820.38;4992495;28;20256;-72
2023/01/09 04:13:34;;;;;;;3.93;2.73;;;7.10;96.30;;;6.25;89.11;98819.38;4992611;28;20207;-72
2023/01/09 04:16:02;;;;;;;4.13;3.00;;;7.00;96.10;;;6.26;89.11;98820.19;4992423;28;20266;-72
2023/01/09 04:18:30;;;;;;;3.57;2.40;;;7.10;95.80;;;6.29;89.17;98820.66;4992741;28;20237;-72
2023/01/09 04:20:58;;;;;;;3.37;2.70;;;7.10;95.70;;;6.30;89.20;98822.28;4992658;28;20224;-72
2023/01/09 04:23:27;;;;;;;3.77;3.00;;;7.10;95.60;;;6.30;88.87;98814.31;4992414;28;20212;-72
2023/01/09 04:25:56;;;;;;;7.37;3.10;;;7.20;95.60;;;6.30;89.02;98813.53;4992632;28;20211;-73
2023/01/09 04:28:24;;;;;;;3.47;3.17;;;7.10;95.70;;;6.28;88.96;98819.00;4992591;28;20232;-72
2023/01/09 04:30:52;;;;;;;3.27;2.80;;;7.10;95.70;;;6.28;89.02;98821.66;4992703;28;20209;-71
2023/01/09 04:33:20;;;;;;;3.43;2.90;;;7.10;95.70;;;6.29;89.13;98820.66;4992500;28;20211;-72
2023/01/09 04:35:48;;;;;;;3.67;3.30;;;7.10;95.60;;;6.29;88.97;98820.66;4991804;28;20676;-72
2023/01/09 04:38:17;;;;;;;4.30;3.50;;;7.10;95.60;;;6.29;88.98;98817.19;4992231;28;20228;-71
2023/01/09 04:40:47;;;;;;;4.10;3.70;;;7.10;95.70;;;6.28;89.08;98826.97;4992493;28;20222;-72
2023/01/09 04:43:17;;;;;;;3.83;3.50;;;7.10;95.70;;;6.29;89.50;98817.19;4992160;28;20216;-71
2023/01/09 04:45:45;;;;;;;4.17;3.80;;;7.10;95.80;;;6.26;89.39;98821.03;4991920;28;20569;-72
2023/01/09 04:48:14;;;;;;;3.47;3.17;;;7.10;95.80;;;6.29;89.34;98819.84;4992158;28;20232;-72
2023/01/09 04:50:42;;;;;;;4.07;3.67;;;7.10;95.80;;;6.29;89.01;98825.16;4991769;28;20242;-72
2023/01/09 04:53:10;;;;;;;3.87;3.27;;;7.10;96.20;;;6.29;89.34;98825.16;4992026;28;20231;-72
2023/01/09 04:55:40;;;;;;;4.20;3.80;;;7.10;95.90;;;6.29;89.42;98825.16;4979559;28;20712;-72
2023/01/09 04:58:08;;;;;;;4.30;3.90;;;7.10;96.00;;;6.28;90.15;98834.94;4972331;28;20228;-72
2023/01/09 05:00:38;;;;;;;3.60;3.30;;;7.10;96.20;;;6.29;89.89;98836.59;4972118;28;20696;-72
2023/01/09 05:03:06;;;;;;;3.57;3.27;;;7.10;96.10;;;6.33;89.38;98837.91;4972257;28;20694;-72
2023/01/09 05:05:34;;;;;;;5.07;3.73;;;7.10;95.80;;;6.34;89.36;98839.53;4972155;28;20502;-72
2023/01/09 05:08:02;;;;;;;4.47;3.00;;;7.20;95.80;;;6.36;89.50;98850.84;4971511;28;20255;-72
2023/01/09 05:10:30;;;;;;;3.33;3.03;;;7.20;95.70;;;6.35;89.30;98851.84;4972077;28;20215;-72
2023/01/09 05:12:58;;;;;;;2.60;2.40;;;7.20;95.70;;;6.36;89.03;98855.31;4971917;28;20633;-72
2023/01/09 05:15:27;;;;;;;2.73;2.30;;;7.20;95.60;;;6.37;88.70;98854.31;4972038;28;20216;-71
2023/01/09 05:17:56;;;;;;;2.93;2.53;;;7.20;95.50;;;6.37;88.91;98857.78;4971597;28;20267;-72
2023/01/09 05:20:24;;;;;;;4.10;2.30;;;7.20;95.50;;;6.36;88.93;98858.81;4971835;28;20223;-72
2023/01/09 05:22:52;;;;;;;2.20;2.00;;;7.20;95.50;;;6.34;88.69;98860.78;4971995;28;20212;-72
2023/01/09 05:25:20;;;;;;;2.67;2.17;;;7.20;95.40;;;6.34;88.70;98859.97;4971668;28;20677;-72
2023/01/09 05:27:48;;;;;;;2.00;1.80;;;7.20;95.50;;;6.34;88.40;98855.47;4976864;28;20224;-72
2023/01/09 05:30:18;;;;;;;1.70;1.57;;;7.20;95.30;;;6.33;88.67;98869.81;4990737;28;20584;-72
2023/01/09 05:32:46;;;;;;;1.70;1.47;;;7.20;95.40;;;6.33;88.21;98874.28;4991067;28;20632;-72
2023/01/09 05:35:15;;;;;;;1.50;1.40;;;7.10;95.20;;;6.31;88.09;98869.13;4991269;28;20263;-72
2023/01/09 05:37:43;;;;;;;1.50;1.30;;;7.20;95.10;;;6.32;88.00;98872.63;4991027;28;20236;-72
2023/01/09 05:40:13;;;;;;;2.13;1.40;;;7.10;95.00;;;6.31;87.85;98881.59;4991054;28;20212;-71
2023/01/09 05:42:43;;;;;;;1.30;1.20;;;7.20;95.10;;;6.29;87.95;98879.13;4990873;28;20218;-71
2023/01/09 05:45:12;;;;;;;1.30;1.20;;;7.10;95.10;;;6.31;88.27;98877.09;4991175;28;20204;-71
2023/01/09 05:47:40;;;;;;;1.73;1.60;;;7.10;95.20;;;6.28;88.24;98893.41;4990050;28;20239;-72
2023/01/09 05:50:10;;;;;;;1.57;1.47;;;7.10;95.30;;;6.28;88.39;98895.25;4991239;28;20283;-71
2023/01/09 05:52:40;;;;;;;2.03;1.37;;;7.10;95.40;;;6.24;88.55;98889.44;4990855;28;20277;-72
2023/01/09 05:55:08;;;;;;;1.73;1.40;;;7.10;95.30;;;6.24;88.57;98894.75;5006504;28;20817;-71
2023/01/09 05:57:37;;;;;;;1.50;1.40;;;7.10;95.30;;;6.26;88.24;98905.22;5009899;28;20679;-72
2023/01/09 06:00:07;;;;;;;1.10;1.10;;;7.10;95.30;;;6.23;88.83;98901.09;5010350;28;20207;-71
2023/01/09 06:02:35;;;;;;;1.37;1.27;;;7.10;95.40;;;6.25;88.62;98907.06;5010283;28;20207;-72
2023/01/09 06:05:03;;;;;;;1.67;1.50;;;7.10;95.40;;;6.24;88.52;98910.72;5010325;28;20207;-71
2023/01/09 06:07:33;;;;;;;3.80;1.50;;;7.00;95.30;;;6.24;88.58;98912.53;5009693;28;20227;-71
2023/01/09 06:10:03;;;;;;;2.10;1.90;;;7.10;95.30;;;6.25;88.20;98908.88;5009947;28;20211;-72
2023/01/09 06:12:31;;;;;;;2.07;1.87;;;7.10;95.30;;;6.26;88.15;98900.75;5010065;28;20233;-71
2023/01/09 06:14:59;;;;;;;2.50;1.80;;;7.10;95.20;;;6.25;88.40;98904.41;5009903;28;20207;-72
2023/01/09 06:17:27;;;;;;;2.70;1.80;;;7.10;95.20;;;6.26;88.16;98908.72;5009394;28;20236;-72
2023/01/09 06:19:56;;;;;;;2.80;2.00;;;7.10;95.20;;;6.25;88.59;98908.88;5010121;28;20203;-71
2023/01/09 06:22:24;;;;;;;3.87;2.03;;;7.10;95.30;;;6.24;88.82;98916.03;5010037;28;20218;-71
2023/01/09 06:24:52;;;;;;;2.30;1.97;;;7.10;95.20;;;6.23;88.36;98922.38;5010008;28;20214;-71
2023/01/09 06:27:22;;;;;;;4.03;2.30;;;7.00;95.20;;;6.23;88.52;98925.03;5009614;28;20242;-71
2023/01/09 06:29:50;;;;;;;3.90;2.67;;;7.00;95.40;;;6.22;88.45;98926.00;5009746;28;20208;-71
2023/01/09 06:32:18;;;;;;;3.50;2.47;;;7.00;95.30;;;6.20;88.47;98935.97;5009816;28;20227;-72
2023/01/09 06:34:46;;;;;;;4.67;2.90;;;7.00;95.40;;;6.22;88.33;98931.34;5010098;28;20211;-71
2023/01/09 06:37:14;;;;;;;4.23;3.13;;;7.00;95.30;;;6.22;88.37;98941.97;5009532;28;20250;-72
2023/01/09 06:39:42;;;;;;;4.23;3.10;;;7.00;95.20;;;6.23;88.10;98948.09;5009933;28;20211;-71
2023/01/09 06:42:10;;;;;;;4.57;3.10;;;7.00;95.30;;;6.24;87.91;98955.88;5009666;28;20207;-71
2023/01/09 06:44:40;;;;;;;3.93;3.10;;;7.10;95.20;;;6.23;88.05;98962.22;5009791;28;20219;-72
2023/01/09 06:47:08;;;;;;;4.97;3.00;;;7.10;95.00;;;6.28;87.27;98959.03;5009488;28;20230;-70
2023/01/09 06:49:36;;;;;;;3.77;3.10;;;7.10;94.80;;;6.26;87.55;98958.38;5009660;28;20845;-69
2023/01/09 06:52:06;;;;;;;4.20;3.80;;;7.10;94.70;;;6.24;87.62;98971.81;5009706;28;20261;-69
2023/01/09 06:54:35;;;;;;;3.80;3.40;;;7.10;94.70;;;6.23;87.15;98964.88;4998182;28;20204;-69
2023/01/09 06:57:03;;;;;;;4.23;3.93;;;7.10;94.70;;;6.19;87.11;98966.22;4989649;28;20231;-70
2023/01/09 06:59:31;;;;;;;4.23;3.70;;;7.00;94.60;;;6.15;87.08;98967.56;4991984;28;20202;-69
2023/01/09 07:02:00;;;;;;;4.43;4.00;;;7.00;94.60;;;6.13;86.75;98966.91;4994031;28;20204;-69
2023/01/09 07:04:28;;;;;;;5.50;3.97;;;7.00;94.50;;;6.10;86.78;98967.25;4994018;28;20204;-69
2023/01/09 07:06:57;;;;;;;6.43;5.15;;;7.00;94.40;;;6.08;86.77;98971.94;4991575;28;20413;-69
2023/01/09 07:09:25;;;;;;;5.67;4.47;;;6.90;94.40;;;6.08;86.18;98982.56;4994251;28;20215;-69
2023/01/09 07:11:53;;;;;;;4.83;4.43;;;6.90;94.10;;;6.06;85.91;98981.91;4993750;28;20223;-68
2023/01/09 07:14:21;;;;;;;6.50;4.40;;;6.90;94.00;;;6.02;85.72;98980.59;4994073;28;20232;-68
2023/01/09 07:16:49;;;;;;;5.23;4.67;;;6.90;93.90;;;6.01;85.57;98998.38;4993726;28;20258;-69
2023/01/09 07:19:18;;;;;;;8.37;5.90;;;6.90;93.70;;;5.96;85.04;98997.22;4993991;28;20211;-69
2023/01/09 07:21:46;;;;;;;6.33;4.23;;;6.80;93.50;;;5.97;85.00;99001.53;4993397;28;20751;-68
2023/01/09 07:24:14;;;;;;;6.77;5.10;;;6.80;93.50;;;5.93;85.16;99001.06;4993862;28;20219;-69
2023/01/09 07:26:42;;;;;;;6.77;5.60;;;6.80;93.50;;;5.94;85.09;99016.00;4993563;28;20204;-69
2023/01/09 07:29:11;;;;;;;8.20;5.13;;;6.80;93.50;;;5.93;85.01;99011.69;4993764;28;20212;-69
2023/01/09 07:31:39;;;;;;;6.23;4.80;;;6.70;93.40;;;5.86;84.38;99016.03;4993907;28;20218;-69
2023/01/09 07:34:08;;;;;;;7.37;4.83;;;6.70;93.20;;;5.85;84.22;99030.28;4993424;28;20247;-68
2023/01/09 07:36:37;;;;;;;5.77;4.90;;;6.70;93.20;;;5.85;84.19;99026.81;4993379;28;20208;-68
2023/01/09 07:39:05;;;;;;;9.90;5.13;;;6.70;93.10;;;5.85;83.84;99034.78;4993513;28;20243;-69
2023/01/09 07:41:33;;;;;;;5.90;4.80;;;6.70;93.00;;;5.86;83.99;99031.13;4993385;28;20231;-68
2023/01/09 07:44:01;;;;;;;5.53;4.60;;;6.70;93.00;;;5.85;83.78;99034.78;4993270;28;20209;-68
2023/01/09 07:46:30;;;;;;;8.43;4.77;;;6.70;92.90;;;5.81;83.75;99038.75;4992982;28;20223;-68
2023/01/09 07:48:58;;;;;;;6.50;4.83;;;6.70;92.80;;;5.76;83.11;99041.91;4993352;28;20214;-68
2023/01/09 07:51:26;;;;;;;7.77;4.83;;;6.60;92.60;;;5.75;83.56;99040.28;4993160;28;20215;-69
2023/01/09 07:53:55;;;;;;;6.43;4.90;;;6.60;92.80;;;5.75;83.54;99040.28;4998644;28;20269;-68
2023/01/09 07:56:23;;;;;;;8.73;6.47;;;6.50;92.60;;;5.77;83.30;99040.09;5012396;28;20261;-69
2023/01/09 07:58:51;;;;;;;11.07;9.27;;;6.60;92.60;;;5.69;82.79;99053.38;5012539;28;20228;-68
2023/01/09 08:01:19;;;;;;;11.47;10.27;;;6.60;92.40;;;5.71;82.81;99059.38;5012420;28;20702;-69
2023/01/09 08:03:48;;;;;;;11.80;10.33;;;6.50;92.30;;;5.67;82.51;99058.88;5012778;28;20234;-69
2023/01/09 08:06:16;;;;;;;13.13;10.27;;;6.50;92.60;;;5.65;82.71;99070.69;5012337;28;20231;-69
2023/01/09 08:08:44;;;;;;;14.23;10.90;;;6.50;92.30;;;5.60;82.55;99064.03;5011989;28;20227;-69
2023/01/09 08:11:13;;;;;;;14.63;10.07;;;6.50;92.40;;;5.57;82.37;99075.00;5011693;28;20422;-68
2023/01/09 08:13:41;;;;;;;14.70;8.90;;;6.40;92.30;;;5.52;83.36;99079.97;5012314;28;20228;-70
2023/01/09 08:16:09;;;;;;;10.67;8.00;;;6.40;92.40;;;5.52;83.08;99087.94;5011954;28;20576;-70
2023/01/09 08:18:38;;;;;;;13.10;7.80;;;6.40;92.40;;;5.53;82.95;99071.03;5012378;28;20329;-69
2023/01/09 08:21:06;;;;;;;11.83;8.30;;;6.30;92.40;;;5.49;82.90;99076.81;5012190;28;20219;-69
2023/01/09 08:23:34;;;;;;;10.60;8.70;;;6.30;92.30;;;5.51;82.54;99072.19;5012030;28;20214;-71
2023/01/09 08:26:02;;;;;;;12.70;7.63;;;6.40;92.20;;;5.50;82.41;99083.81;5012354;28;20290;-69
2023/01/09 08:28:32;;;;;;;10.70;8.37;;;6.40;92.00;;;5.54;82.49;99080.66;5012199;28;20231;-69
2023/01/09 08:31:00;;;;;;;18.40;8.87;;;6.40;92.00;;;5.56;82.33;99085.78;5012469;28;20211;-70
2023/01/09 08:33:28;;;;;;;11.93;8.33;;;6.40;92.00;;;5.57;82.17;99088.28;5012048;28;20227;-70
2023/01/09 08:35:56;;;;;;;18.60;8.80;;;6.40;91.90;;;5.58;82.44;99095.22;5011573;28;20215;-70
2023/01/09 08:38:25;;;;;;;13.00;8.60;;;6.50;92.00;;;5.64;82.05;99099.06;5011878;28;20227;-71
2023/01/09 08:40:53;;;;;;;11.50;7.87;;;6.50;91.80;;;5.61;82.72;99097.56;5011763;28;20227;-69
2023/01/09 08:49:05;;;;;;;13.77;8.20;;;6.50;91.90;;;5.61;82.06;99110.00;5011561;28;20601;-69
2023/01/09 08:51:33;;;;;;;17.37;8.50;;;6.50;91.90;;;5.61;82.21;99105.53;5011641;28;20218;-69
2023/01/09 08:54:01;;;;;;;13.27;8.43;;;6.50;92.00;;;5.63;82.42;99113.31;5004988;28;20231;-69
2023/01/09 08:56:29;;;;;;;15.10;8.00;;;6.50;92.10;;;5.63;82.33;99115.97;4991567;28;20703;-69
2023/01/09 08:58:57;;;;;;;12.20;8.50;;;6.50;92.00;;;5.67;82.19;99121.78;4991825;28;20232;-69
2023/01/09 09:01:26;;;;;;;10.70;8.00;;;6.50;92.00;;;5.71;82.62;99134.56;4992152;28;20218;-69
2023/01/09 09:03:54;;;;;;;13.53;7.93;;;6.50;91.90;;;5.73;82.22;99126.41;4991691;28;20985;-69
2023/01/09 09:06:22;;;;;;;13.10;8.13;;;6.60;91.80;;;5.74;82.41;99128.91;4991531;28;20208;-69
2023/01/09 09:08:50;;;;;;;14.07;7.80;;;6.60;91.90;;;5.78;82.69;99134.69;4991276;28;20330;-69
2023/01/09 09:11:18;;;;;;;13.00;7.70;;;6.60;91.90;;;5.79;82.82;99126.53;4991822;28;20208;-68
2023/01/09 09:13:46;;;;;;;13.57;7.77;;;6.60;92.10;;;5.80;82.96;99132.69;4991275;28;20352;-69
2023/01/09 09:16:14;;;;;;;10.57;6.47;;;6.70;92.30;;;5.84;82.53;99134.84;4991535;28;20204;-68
2023/01/09 09:18:44;;;;;;;10.13;6.57;;;6.70;92.10;;;5.86;82.72;99137.34;4991256;28;20326;-69
2023/01/09 09:21:12;;;;;;;9.30;6.13;;;6.70;92.10;;;5.92;81.75;99128.72;4991490;28;20204;-68
2023/01/09 09:23:40;;;;;;;8.03;5.53;;;6.70;91.70;;;5.94;82.07;99129.38;4990459;28;20212;-69
2023/01/09 09:26:08;;;;;;;11.00;6.17;;;6.80;91.90;;;5.93;81.91;99127.72;4991255;28;20211;-69
2023/01/09 09:28:36;;;;;;;9.57;4.20;;;6.80;91.80;;;5.97;80.92;99137.00;4991475;28;20235;-69
2023/01/09 09:31:05;;;;;;;9.83;4.53;;;6.80;91.20;;;5.98;80.80;99136.00;4991211;28;20791;-69
2023/01/09 09:33:34;;;;;;;11.37;4.13;;;6.80;91.30;;;5.99;81.04;99143.00;4991138;28;20211;-69
2023/01/09 09:36:03;;;;;;;8.93;3.50;;;6.80;91.20;;;6.03;80.16;99149.59;4990900;28;20200;-68
2023/01/09 09:38:31;;;;;;;7.53;3.73;;;6.80;90.90;;;6.06;79.83;99152.75;4991257;28;20243;-69
2023/01/09 09:44:43;;;;;;;6.87;3.40;;;6.90;90.60;;;6.12;79.93;99151.25;4991356;28;20188;-70
2023/01/09 09:47:42;;;;;;;5.83;2.97;;;7.00;90.60;;;6.19;79.38;99149.56;4991102;28;20232;-70
2023/01/09 09:50:37;;;;;;;8.07;3.37;;;7.00;90.50;;;6.24;80.27;99151.69;4991057;28;20203;-70
2023/01/09 09:53:16;;;;;;;5.17;3.00;;;7.10;90.80;;;6.31;79.59;99148.19;4991052;28;20215;-70
2023/01/09 09:55:49;;;;;;;7.40;2.53;;;7.20;90.70;;;6.45;77.90;99144.81;4971283;28;20243;-69
2023/01/09 09:58:27;;;;;;;7.10;2.40;;;7.30;89.30;;;6.45;77.52;99144.81;4971189;28;20725;-68
2023/01/09 10:00:58;;;;;;;6.97;2.43;;;7.30;89.20;;;6.42;78.37;99144.34;4971241;28;20208;-69
2023/01/09 10:03:32;;;;;;;9.97;3.40;;;7.30;89.50;;;6.47;78.07;99148.13;4971456;28;20215;-69
2023/01/09 10:06:08;;;;;;;10.10;2.87;;;7.30;89.50;;;6.47;78.67;99150.78;4970997;28;20703;-69
2023/01/09 10:08:49;;;;;;;6.67;2.70;;;7.30;90.00;;;6.50;78.06;99152.28;4970991;28;20243;-68
2023/01/09 10:11:27;;;;;;;6.57;2.77;;;7.40;89.30;;;6.49;78.54;99143.47;4971505;28;20217;-69
2023/01/09 10:14:04;;;;;;;5.47;2.60;;;7.40;89.70;;;6.51;78.66;99145.94;4971375;28;20199;-69
2023/01/09 10:17:12;;;;;;;7.57;2.60;;;7.40;89.80;;;6.56;77.77;99143.59;4970999;28;20212;-69
2023/01/09 10:20:08;;;;;;;6.77;2.43;;;7.40;89.30;;;6.60;77.69;99135.13;4971303;28;20267;-70
2023/01/09 10:22:49;;;;;;;5.80;2.30;;;7.50;88.50;;;6.63;77.17;99148.06;4971168;28;20559;-69
2023/01/09 10:25:30;;;;;;;3.97;2.33;;;7.50;88.30;;;6.61;77.20;99142.06;4971154;28;20215;-70
2023/01/09 10:28:20;;;;;;;8.38;2.80;;;7.50;88.80;;;6.60;76.78;99163.53;4969794;28;21113;-69
2023/01/09 10:30:58;;;;;;;5.82;2.83;;;7.40;87.50;;;6.58;77.40;99161.03;4969962;28;20415;-69
2023/01/09 10:33:50;;;;;;;7.10;3.00;;;7.40;88.50;;;6.56;77.26;99155.06;4969580;28;20951;-70
2023/01/09 10:36:38;;;;;;;6.40;2.63;;;7.40;88.40;;;6.53;77.47;99160.75;4969593;28;20416;-69
2023/01/09 10:39:16;;;;;;;6.72;2.75;;;7.40;88.60;;;6.53;78.10;99163.41;4970076;28;20419;-69
2023/01/09 10:41:58;;;;;;;6.95;2.70;;;7.40;89.00;;;6.55;77.92;99157.91;4969728;28;20424;-69
2023/01/09 10:44:36;;;;;;;5.67;2.40;;;7.40;89.30;;;6.62;77.66;99161.53;4968782;28;21368;-69
2023/01/09 10:47:15;;;;;;;6.83;2.80;;;7.50;88.80;;;6.64;78.50;99152.34;4969413;28;20500;-69
2023/01/09 10:49:45;;;;;;;7.30;2.63;;;7.50;89.50;;;6.68;77.38;99144.88;4969678;28;20419;-69
2023/01/09 10:52:19;;;;;;;5.55;2.50;;;7.60;88.80;;;6.84;76.47;99143.97;4969919;28;20408;-69
2023/01/09 10:54:55;;;;;;;5.28;2.38;;;7.70;88.50;;;6.85;76.59;99140.31;4992342;28;20429;-69
2023/01/09 10:57:42;;;;;;;6.75;2.60;;;7.70;87.80;;;6.93;77.24;99125.09;4969265;28;20487;-70
2023/01/09 11:00:20;;;;;;;4.50;2.10;;;7.80;88.00;;;7.00;75.24;99128.72;4969525;28;20466;-70
2023/01/09 11:02:52;;;;;;;4.97;2.30;;;7.80;86.50;;;6.99;76.00;99127.06;4969672;28;20503;-70
2023/01/09 11:05:24;;;;;;;5.43;2.10;;;7.80;86.50;;;6.99;75.82;99127.06;4969455;28;20454;-70
2023/01/09 11:07:59;;;;;;;4.07;2.10;;;7.80;86.70;;;7.10;75.18;99131.97;4968945;28;20417;-65